Time;durP1;ratioP1;P1;durP2;ratioP2;P2;SDS_P1;SDS_P2;PMS_P1;PMS_P2;Temp;Humidity;BMP_temperature;BMP_pressure;BME280_temperature;BME280_humidity;BME280_pressure;Samples;Min_cycle;Max_cycle;Signal;HPM_P1;HPM_P2
2023/09/26 00:01:30;;;;;;;4.03;3.63;;;11.60;99.90;;;;;;5012757;28;20200;-28
2023/09/26 00:03:56;;;;;;;4.70;3.93;;;11.50;99.90;;;;;;5014901;28;20185;-27
2023/09/26 00:06:23;;;;;;;4.17;3.60;;;11.50;99.90;;;;;;5013655;28;20185;-28
2023/09/26 00:08:52;;;;;;;4.57;3.50;;;11.50;99.90;;;;;;5028757;28;20238;-26
2023/09/26 00:11:19;;;;;;;4.90;4.23;;;11.50;99.90;;;;;;5022721;28;20231;-27
2023/09/26 00:13:48;;;;;;;5.83;4.20;;;11.50;99.90;;;;;;5019322;28;20218;-27
2023/09/26 00:16:14;;;;;;;5.67;3.90;;;11.50;99.90;;;;;;5012543;28;20193;-27
2023/09/26 00:18:42;;;;;;;4.53;3.80;;;11.40;99.90;;;;;;5015166;28;20218;-28
2023/09/26 00:21:12;;;;;;;6.80;4.13;;;11.40;99.90;;;;;;5012408;28;20204;-26
2023/09/26 00:23:39;;;;;;;4.40;3.80;;;11.40;99.90;;;;;;4994935;28;20196;-27
2023/09/26 00:26:07;;;;;;;4.70;4.00;;;11.40;99.90;;;;;;5064650;22;20227;-31
2023/09/26 00:28:37;;;;;;;6.77;4.10;;;11.30;99.90;;;;;;5037061;28;20266;-31
2023/09/26 00:31:04;;;;;;;3.90;3.53;;;11.30;99.90;;;;;;5037344;28;20194;-31
2023/09/26 00:33:39;;;;;;;4.37;3.77;;;11.30;99.90;;;;;;5057830;28;20187;-31
2023/09/26 00:36:10;;;;;;;4.63;3.63;;;11.20;99.90;;;;;;5040095;28;20210;-31
2023/09/26 00:38:36;;;;;;;4.07;3.60;;;11.20;99.90;;;;;;5050195;28;20195;-30
2023/09/26 00:41:03;;;;;;;4.00;3.60;;;11.20;99.90;;;;;;5033222;28;20338;-31
2023/09/26 00:43:31;;;;;;;3.97;3.60;;;11.10;99.90;;;;;;5053253;28;20202;-30
2023/09/26 00:46:00;;;;;;;4.07;3.60;;;11.10;99.90;;;;;;5026784;28;20211;-30
2023/09/26 00:48:26;;;;;;;4.40;4.00;;;11.10;99.90;;;;;;5020029;28;20176;-31
2023/09/26 00:50:53;;;;;;;4.70;3.90;;;11.00;99.90;;;;;;5036282;28;20190;-31
2023/09/26 00:53:21;;;;;;;5.17;3.63;;;10.90;99.90;;;;;;5035494;28;20184;-30
2023/09/26 00:55:50;;;;;;;4.93;4.27;;;10.90;99.90;;;;;;5051973;28;20209;-30
2023/09/26 00:58:19;;;;;;;5.77;3.97;;;10.80;99.90;;;;;;5019591;28;20271;-30
2023/09/26 01:00:49;;;;;;;6.17;4.33;;;10.80;99.90;;;;;;5019847;28;20182;-30
2023/09/26 01:03:16;;;;;;;4.60;3.83;;;10.80;99.90;;;;;;5023119;28;20648;-31
2023/09/26 01:05:42;;;;;;;4.93;3.83;;;10.70;99.90;;;;;;5021989;28;20205;-30
2023/09/26 01:08:08;;;;;;;3.97;3.57;;;10.70;99.90;;;;;;5050554;28;20297;-31
2023/09/26 01:10:36;;;;;;;7.00;4.17;;;10.70;99.90;;;;;;5031227;28;20189;-31
2023/09/26 01:13:02;;;;;;;5.00;3.70;;;10.70;99.90;;;;;;5049847;28;20184;-31
2023/09/26 01:15:41;;;;;;;4.47;4.07;;;10.70;99.90;;;;;;5032192;28;20252;-31
2023/09/26 01:18:16;;;;;;;4.83;4.00;;;10.70;99.90;;;;;;5034873;28;20262;-30
2023/09/26 01:20:46;;;;;;;8.27;4.40;;;10.70;99.90;;;;;;5047332;28;20189;-31
2023/09/26 01:23:14;;;;;;;7.70;3.80;;;10.60;99.90;;;;;;5050547;28;20177;-31
2023/09/26 01:25:46;;;;;;;5.00;3.63;;;10.60;99.90;;;;;;5043900;28;20273;-31
2023/09/26 01:28:16;;;;;;;4.97;3.33;;;10.70;99.90;;;;;;5016948;28;20186;-31
2023/09/26 01:30:42;;;;;;;3.70;3.40;;;10.70;99.90;;;;;;5019237;28;20188;-31
2023/09/26 01:33:11;;;;;;;4.40;3.50;;;10.60;99.90;;;;;;5035791;28;20209;-31
2023/09/26 01:35:37;;;;;;;4.07;3.33;;;10.60;99.90;;;;;;5018368;28;20206;-31
2023/09/26 01:38:03;;;;;;;5.83;3.60;;;10.50;99.90;;;;;;5034656;28;20708;-31
2023/09/26 01:40:29;;;;;;;4.83;3.67;;;10.50;99.90;;;;;;5035383;28;20237;-31
2023/09/26 01:42:54;;;;;;;4.63;3.83;;;10.40;99.90;;;;;;5050705;28;20186;-31
2023/09/26 01:45:20;;;;;;;6.70;4.00;;;10.40;99.90;;;;;;5033962;28;20251;-31
2023/09/26 01:47:51;;;;;;;4.27;3.17;;;10.30;99.90;;;;;;5035450;28;20201;-30
2023/09/26 01:50:18;;;;;;;5.33;4.03;;;10.30;99.90;;;;;;5035303;28;20178;-31
2023/09/26 01:52:45;;;;;;;5.03;4.13;;;10.20;99.90;;;;;;5045737;28;20269;-31
2023/09/26 01:55:19;;;;;;;5.40;3.63;;;10.10;99.90;;;;;;5050672;28;20241;-31
2023/09/26 01:57:45;;;;;;;5.23;4.00;;;10.00;99.90;;;;;;5052052;28;20186;-31
2023/09/26 02:00:12;;;;;;;4.70;4.00;;;9.90;99.90;;;;;;5032834;28;20260;-31
2023/09/26 02:02:45;;;;;;;4.73;4.27;;;9.90;99.90;;;;;;5047962;28;20210;-30
2023/09/26 02:05:14;;;;;;;5.77;4.20;;;9.90;99.90;;;;;;5038474;28;20214;-31
2023/09/26 02:07:40;;;;;;;5.83;4.73;;;9.80;99.90;;;;;;5024923;28;20214;-31
2023/09/26 02:10:07;;;;;;;4.17;3.83;;;9.80;99.90;;;;;;5045204;28;20182;-30
2023/09/26 02:12:38;;;;;;;4.63;4.20;;;9.90;99.90;;;;;;5050619;28;20217;-31
2023/09/26 02:15:07;;;;;;;4.13;3.73;;;9.90;99.90;;;;;;5034520;28;20197;-30
2023/09/26 02:17:34;;;;;;;4.20;3.80;;;10.00;99.90;;;;;;5018191;28;20261;-30
2023/09/26 02:20:08;;;;;;;6.57;3.93;;;10.00;99.90;;;;;;5019568;28;20193;-31
2023/09/26 02:22:37;;;;;;;4.83;3.90;;;10.00;99.90;;;;;;5034819;28;20205;-31
2023/09/26 02:25:03;;;;;;;4.80;3.90;;;10.00;99.90;;;;;;5018314;28;20229;-31
2023/09/26 02:27:30;;;;;;;4.83;3.60;;;10.10;99.90;;;;;;5018420;28;20166;-31
2023/09/26 02:29:55;;;;;;;5.43;3.80;;;10.10;99.90;;;;;;5018069;28;20202;-31
2023/09/26 02:32:21;;;;;;;7.03;3.70;;;10.10;99.90;;;;;;5018438;28;20182;-31
2023/09/26 02:34:47;;;;;;;7.43;4.10;;;10.20;99.90;;;;;;5013174;28;20829;-31
2023/09/26 02:37:13;;;;;;;5.47;3.87;;;10.20;99.90;;;;;;5017833;28;20281;-31
2023/09/26 02:39:39;;;;;;;5.53;4.07;;;10.20;99.90;;;;;;5031813;28;20182;-30
2023/09/26 02:42:05;;;;;;;5.73;3.83;;;10.20;99.90;;;;;;5030739;28;20203;-31
2023/09/26 02:44:31;;;;;;;5.90;4.00;;;10.20;99.90;;;;;;5016614;28;20197;-31
2023/09/26 02:46:57;;;;;;;4.73;4.03;;;10.20;99.90;;;;;;5034194;28;20187;-31
2023/09/26 02:49:23;;;;;;;5.80;3.77;;;10.20;99.90;;;;;;5049028;28;20223;-31
2023/09/26 02:51:49;;;;;;;4.00;3.60;;;10.10;99.90;;;;;;5013612;28;20179;-31
2023/09/26 02:54:14;;;;;;;6.27;3.50;;;10.20;99.90;;;;;;5048056;28;20186;-31
2023/09/26 02:56:40;;;;;;;4.50;3.50;;;10.20;99.90;;;;;;5017230;28;20193;-31
2023/09/26 02:59:06;;;;;;;6.33;3.50;;;10.20;99.90;;;;;;5016668;28;20186;-31
2023/09/26 03:01:32;;;;;;;7.10;4.00;;;10.20;99.90;;;;;;5015745;28;20212;-31
2023/09/26 03:03:58;;;;;;;3.77;3.43;;;10.10;99.90;;;;;;5017755;28;20182;-31
2023/09/26 03:06:24;;;;;;;5.60;3.90;;;10.00;99.90;;;;;;5015739;28;20225;-30
2023/09/26 03:08:49;;;;;;;4.70;3.40;;;10.00;99.90;;;;;;5017005;28;20182;-31
2023/09/26 03:11:15;;;;;;;5.83;3.27;;;10.00;99.90;;;;;;5015729;28;20190;-31
2023/09/26 03:13:42;;;;;;;6.10;4.17;;;9.90;99.90;;;;;;5018958;28;20249;-31
2023/09/26 03:16:14;;;;;;;4.63;3.53;;;9.90;99.90;;;;;;5053182;28;20220;-30
2023/09/26 03:18:48;;;;;;;5.87;3.60;;;9.90;99.90;;;;;;5033097;28;20226;-31
2023/09/26 03:21:16;;;;;;;5.23;3.40;;;9.90;99.90;;;;;;5016883;28;20797;-31
2023/09/26 03:23:43;;;;;;;4.40;3.63;;;9.80;99.90;;;;;;5030081;28;20178;-31
2023/09/26 03:26:10;;;;;;;9.50;3.80;;;9.80;99.90;;;;;;5030278;28;20232;-31
2023/09/26 03:28:37;;;;;;;4.00;3.70;;;9.80;99.90;;;;;;5050378;28;20255;-31
2023/09/26 03:31:04;;;;;;;3.80;3.50;;;9.70;99.90;;;;;;5050195;28;20228;-31
2023/09/26 03:33:30;;;;;;;4.90;3.90;;;9.70;99.90;;;;;;5033606;28;20239;-31
2023/09/26 03:35:59;;;;;;;4.43;4.03;;;9.70;99.90;;;;;;5033924;28;20209;-31
2023/09/26 03:38:26;;;;;;;4.50;4.10;;;9.70;99.90;;;;;;5016278;28;20216;-31
2023/09/26 03:41:00;;;;;;;4.67;4.00;;;9.70;99.90;;;;;;5013314;28;20186;-31
2023/09/26 03:43:31;;;;;;;6.03;4.03;;;9.60;99.90;;;;;;5028980;28;20277;-31
2023/09/26 03:46:04;;;;;;;4.70;4.20;;;9.60;99.90;;;;;;5016967;28;20216;-31
2023/09/26 03:48:36;;;;;;;4.70;4.30;;;9.60;99.90;;;;;;5033195;28;20207;-31
2023/09/26 03:51:17;;;;;;;4.53;4.10;;;9.50;99.90;;;;;;5047421;28;20198;-31
2023/09/26 03:53:56;;;;;;;4.10;3.70;;;9.50;99.90;;;;;;5028847;28;20189;-31
2023/09/26 03:56:25;;;;;;;4.57;4.17;;;9.60;99.90;;;;;;5014389;28;20213;-31
2023/09/26 03:58:53;;;;;;;5.47;3.77;;;9.60;99.90;;;;;;5016343;28;20204;-31
2023/09/26 04:01:19;;;;;;;4.67;3.80;;;9.50;99.90;;;;;;5048021;28;20198;-31
2023/09/26 04:03:46;;;;;;;6.17;3.90;;;9.50;99.90;;;;;;5015987;28;20208;-30
2023/09/26 04:06:12;;;;;;;4.20;3.80;;;9.40;99.90;;;;;;5014329;28;20202;-31
2023/09/26 04:08:38;;;;;;;5.53;4.20;;;9.40;99.90;;;;;;5047583;28;20212;-31
2023/09/26 04:11:04;;;;;;;3.93;3.53;;;9.40;99.90;;;;;;5045940;28;20182;-31
2023/09/26 04:13:30;;;;;;;3.87;3.40;;;9.40;99.90;;;;;;5045816;28;20212;-31
2023/09/26 04:15:57;;;;;;;4.20;3.63;;;9.30;99.90;;;;;;5046218;28;20198;-31
2023/09/26 04:18:23;;;;;;;4.10;3.70;;;9.30;99.90;;;;;;5021467;28;20186;-31
2023/09/26 04:20:50;;;;;;;6.03;4.90;;;9.20;99.90;;;;;;5012630;28;20186;-31
2023/09/26 04:23:16;;;;;;;6.37;4.47;;;9.20;99.90;;;;;;5046724;28;20214;-31
2023/09/26 04:25:42;;;;;;;5.03;3.77;;;9.20;99.90;;;;;;5046648;28;20244;-31
2023/09/26 04:28:08;;;;;;;3.97;3.67;;;9.20;99.90;;;;;;5016429;28;20185;-31
2023/09/26 04:30:40;;;;;;;4.47;3.67;;;9.20;99.90;;;;;;5033086;28;20197;-31
2023/09/26 04:33:08;;;;;;;5.07;3.77;;;9.20;99.90;;;;;;5016273;28;20273;-31
2023/09/26 04:35:34;;;;;;;5.13;3.70;;;9.20;99.90;;;;;;5016028;28;20233;-31
2023/09/26 04:38:02;;;;;;;3.77;3.40;;;9.10;99.90;;;;;;5049640;28;20185;-31
2023/09/26 04:40:29;;;;;;;4.47;3.97;;;9.00;99.90;;;;;;5047032;28;20182;-31
2023/09/26 04:43:05;;;;;;;4.87;3.77;;;9.00;99.90;;;;;;5014582;28;20198;-31
2023/09/26 04:45:32;;;;;;;4.33;3.73;;;8.90;99.90;;;;;;5016358;28;20289;-31
2023/09/26 04:48:02;;;;;;;4.93;3.90;;;8.90;99.90;;;;;;5016237;28;20186;-31
2023/09/26 04:50:28;;;;;;;3.60;3.30;;;8.90;99.90;;;;;;5026878;28;20268;-31
2023/09/26 04:52:55;;;;;;;5.63;3.90;;;9.00;99.90;;;;;;5012453;28;20182;-31
2023/09/26 04:55:21;;;;;;;5.07;3.70;;;9.00;99.90;;;;;;5016114;28;20293;-31
2023/09/26 04:57:47;;;;;;;4.00;3.60;;;9.00;99.90;;;;;;5048610;28;20240;-31
2023/09/26 05:00:17;;;;;;;5.90;3.70;;;9.00;99.90;;;;;;5031409;28;20190;-31
2023/09/26 05:02:44;;;;;;;3.90;3.50;;;9.00;99.90;;;;;;5017686;28;20213;-31
2023/09/26 05:05:12;;;;;;;4.87;4.10;;;9.00;99.90;;;;;;5036117;28;20205;-31
2023/09/26 05:07:44;;;;;;;5.30;3.80;;;9.00;99.90;;;;;;5047293;28;20269;-31
2023/09/26 05:10:12;;;;;;;6.50;4.00;;;8.90;99.90;;;;;;5014161;28;20244;-31
2023/09/26 05:12:42;;;;;;;5.90;3.90;;;8.80;99.90;;;;;;5040726;28;20197;-30
2023/09/26 05:15:12;;;;;;;4.70;3.57;;;8.80;99.90;;;;;;5047693;28;20210;-30
2023/09/26 05:17:46;;;;;;;4.13;3.73;;;8.80;99.90;;;;;;5041282;28;20181;-30
2023/09/26 05:20:12;;;;;;;4.20;3.50;;;8.70;99.90;;;;;;5017899;28;20243;-31
2023/09/26 05:22:43;;;;;;;6.20;3.13;;;8.70;99.90;;;;;;5036163;28;20490;-31
2023/09/26 05:25:09;;;;;;;7.93;4.33;;;8.70;99.90;;;;;;5052260;28;20220;-31
2023/09/26 05:27:37;;;;;;;4.77;3.87;;;8.70;99.90;;;;;;5019755;28;20174;-31
2023/09/26 05:30:04;;;;;;;5.37;3.87;;;8.60;99.90;;;;;;5019334;28;20182;-31
2023/09/26 05:32:30;;;;;;;6.63;4.37;;;8.70;99.90;;;;;;5034078;28;20213;-30
2023/09/26 05:34:56;;;;;;;4.20;3.57;;;8.70;99.90;;;;;;5032550;28;20229;-30
2023/09/26 05:37:21;;;;;;;4.73;3.87;;;8.80;99.90;;;;;;5018862;28;20189;-30
2023/09/26 05:39:48;;;;;;;5.17;4.20;;;8.80;99.90;;;;;;5020567;28;20189;-30
2023/09/26 05:42:14;;;;;;;6.97;4.13;;;8.80;99.90;;;;;;5035522;28;20210;-30
2023/09/26 05:44:39;;;;;;;4.93;4.30;;;8.80;99.90;;;;;;5035061;28;20297;-29
2023/09/26 05:47:05;;;;;;;5.27;3.97;;;8.80;99.90;;;;;;5018943;28;20209;-30
2023/09/26 05:49:31;;;;;;;4.30;3.90;;;8.90;99.90;;;;;;5026535;28;20178;-30
2023/09/26 05:51:57;;;;;;;5.80;3.97;;;8.90;99.90;;;;;;5019032;28;20208;-30
2023/09/26 05:54:23;;;;;;;4.77;4.00;;;8.90;99.90;;;;;;5018044;28;20181;-30
2023/09/26 05:56:51;;;;;;;4.00;3.50;;;8.90;99.90;;;;;;5049896;28;20224;-31
2023/09/26 05:59:18;;;;;;;6.17;4.57;;;8.90;99.90;;;;;;5050613;28;20650;-31
2023/09/26 06:01:46;;;;;;;5.57;4.00;;;8.90;99.90;;;;;;5035544;28;20228;-31
2023/09/26 06:04:16;;;;;;;6.10;3.90;;;8.90;99.90;;;;;;5051559;28;20236;-31
2023/09/26 06:06:44;;;;;;;4.50;4.10;;;9.00;99.90;;;;;;5051550;28;20189;-31
2023/09/26 06:09:16;;;;;;;4.63;4.00;;;9.00;99.90;;;;;;5052005;28;20657;-31
2023/09/26 06:11:42;;;;;;;5.07;4.20;;;9.10;99.90;;;;;;5030030;28;20182;-31
2023/09/26 06:14:07;;;;;;;4.73;4.20;;;9.20;99.90;;;;;;5039154;28;20634;-31
2023/09/26 06:16:34;;;;;;;4.57;4.17;;;9.20;99.90;;;;;;5051241;28;20196;-31
2023/09/26 06:18:59;;;;;;;5.97;4.67;;;9.30;99.90;;;;;;5051812;28;20170;-31
2023/09/26 06:21:25;;;;;;;6.43;4.60;;;9.50;99.90;;;;;;5032696;28;20293;-31
2023/09/26 06:23:51;;;;;;;5.73;4.63;;;9.60;99.90;;;;;;5018149;28;20188;-31
2023/09/26 06:26:18;;;;;;;4.67;4.20;;;9.60;99.90;;;;;;5015650;28;20212;-31
2023/09/26 06:28:44;;;;;;;6.23;4.23;;;9.70;99.90;;;;;;5047665;28;20175;-31
2023/09/26 06:31:10;;;;;;;7.00;4.20;;;9.80;99.90;;;;;;5051445;28;20239;-31
2023/09/26 06:33:37;;;;;;;7.33;4.37;;;9.80;99.90;;;;;;5017685;28;20189;-30
2023/09/26 06:36:15;;;;;;;5.30;4.10;;;9.90;99.90;;;;;;5043169;28;20193;-30
2023/09/26 06:38:41;;;;;;;5.97;4.17;;;10.00;99.90;;;;;;5068001;28;20178;-31
2023/09/26 06:41:07;;;;;;;5.50;4.23;;;9.90;99.90;;;;;;5018097;28;20202;-31
2023/09/26 06:43:33;;;;;;;5.07;4.57;;;10.00;99.90;;;;;;5017592;28;20211;-30
2023/09/26 06:46:08;;;;;;;8.00;4.40;;;10.10;99.90;;;;;;5016951;28;20201;-30
2023/09/26 06:48:35;;;;;;;5.77;4.97;;;10.20;99.90;;;;;;5052131;28;20177;-30
2023/09/26 06:51:02;;;;;;;5.37;4.70;;;10.30;99.90;;;;;;5058849;28;20257;-31
2023/09/26 06:53:28;;;;;;;4.60;4.20;;;10.40;99.90;;;;;;5050599;28;20249;-30
2023/09/26 06:56:05;;;;;;;7.37;4.80;;;10.50;99.90;;;;;;5048217;28;20198;-31
2023/09/26 06:58:32;;;;;;;4.93;4.43;;;10.60;99.90;;;;;;5026735;28;20229;-30
2023/09/26 07:00:58;;;;;;;4.90;4.40;;;10.70;99.90;;;;;;5024517;28;20700;-29
2023/09/26 07:03:29;;;;;;;5.47;4.43;;;10.70;99.90;;;;;;5027908;28;20178;-30
2023/09/26 07:05:56;;;;;;;5.20;4.33;;;10.70;99.90;;;;;;5047361;28;20199;-30
2023/09/26 07:08:22;;;;;;;6.60;4.73;;;10.80;99.90;;;;;;5033534;28;20186;-32
2023/09/26 07:10:49;;;;;;;8.00;5.30;;;10.80;99.90;;;;;;5015541;28;20183;-30
2023/09/26 07:13:16;;;;;;;6.80;4.73;;;10.80;99.90;;;;;;5028802;28;20182;-30
2023/09/26 07:15:44;;;;;;;5.33;4.73;;;10.90;99.90;;;;;;5048102;28;20209;-30
2023/09/26 07:18:12;;;;;;;6.07;4.90;;;11.00;99.90;;;;;;5039810;28;20270;-30
2023/09/26 07:20:49;;;;;;;6.67;5.00;;;11.20;99.90;;;;;;5031119;28;20218;-30
2023/09/26 07:23:16;;;;;;;6.20;4.40;;;11.40;99.90;;;;;;5031497;28;20194;-30
2023/09/26 07:25:43;;;;;;;5.63;5.03;;;11.40;99.90;;;;;;5025518;28;20224;-30
2023/09/26 07:28:09;;;;;;;7.60;4.37;;;11.60;99.90;;;;;;5048246;28;20198;-30
2023/09/26 07:30:35;;;;;;;7.30;4.80;;;11.70;99.90;;;;;;5048309;28;20184;-30
2023/09/26 07:33:03;;;;;;;6.60;5.20;;;11.90;99.90;;;;;;5021627;28;20181;-30
2023/09/26 07:35:29;;;;;;;5.63;4.40;;;12.00;99.90;;;;;;5022656;28;20216;-30
2023/09/26 07:37:58;;;;;;;5.97;4.50;;;12.10;99.90;;;;;;5048857;28;20637;-30
2023/09/26 07:40:25;;;;;;;5.17;4.53;;;12.20;99.90;;;;;;5049232;28;20275;-31
2023/09/26 07:42:57;;;;;;;5.90;4.87;;;12.30;99.90;;;;;;5024419;28;20201;-30
2023/09/26 07:45:25;;;;;;;5.97;4.60;;;12.40;99.90;;;;;;5031378;28;20215;-31
2023/09/26 07:47:50;;;;;;;4.50;4.10;;;12.50;99.90;;;;;;5028533;28;20185;-30
2023/09/26 07:50:16;;;;;;;5.60;4.57;;;12.70;99.90;;;;;;5046102;28;20189;-30
2023/09/26 07:52:42;;;;;;;5.33;4.60;;;12.80;99.90;;;;;;5045499;28;20185;-31
2023/09/26 07:55:09;;;;;;;5.67;4.73;;;12.90;99.90;;;;;;5031993;28;20205;-30
2023/09/26 07:57:36;;;;;;;5.97;4.63;;;13.10;99.90;;;;;;5046734;28;20181;-30
2023/09/26 08:00:03;;;;;;;7.07;5.20;;;13.20;99.90;;;;;;5021017;28;20220;-31
2023/09/26 08:02:33;;;;;;;6.50;4.80;;;13.40;99.90;;;;;;5040762;28;20246;-30
2023/09/26 08:04:59;;;;;;;6.70;4.60;;;13.50;99.90;;;;;;5022335;28;20229;-31
2023/09/26 08:07:24;;;;;;;8.20;5.63;;;13.60;99.90;;;;;;5023115;28;20188;-30
2023/09/26 08:09:50;;;;;;;7.37;5.10;;;13.70;99.90;;;;;;5023779;28;20185;-31
2023/09/26 08:12:16;;;;;;;5.93;4.87;;;13.80;99.90;;;;;;5047684;28;20260;-30
2023/09/26 08:14:42;;;;;;;6.33;4.60;;;13.90;99.90;;;;;;5007045;28;20306;-30
2023/09/26 08:17:08;;;;;;;8.23;4.50;;;14.00;99.90;;;;;;5009816;28;20178;-29
2023/09/26 08:19:33;;;;;;;6.00;4.90;;;14.10;99.90;;;;;;5014340;28;20232;-30
2023/09/26 08:22:06;;;;;;;5.50;4.60;;;14.30;99.90;;;;;;5044750;28;20206;-32
2023/09/26 08:24:32;;;;;;;5.60;5.10;;;14.40;99.90;;;;;;5044335;28;20194;-30
2023/09/26 08:26:58;;;;;;;5.70;4.97;;;14.60;99.90;;;;;;5048229;28;20174;-30
2023/09/26 08:29:24;;;;;;;5.67;4.57;;;14.70;99.90;;;;;;5048574;28;20174;-30
2023/09/26 08:31:51;;;;;;;6.23;4.90;;;14.90;99.90;;;;;;5047909;28;20190;-30
2023/09/26 08:34:17;;;;;;;6.37;5.00;;;15.00;99.90;;;;;;5046684;28;20189;-30
2023/09/26 08:36:43;;;;;;;5.10;4.37;;;15.10;99.90;;;;;;5024693;28;20177;-30
2023/09/26 08:39:11;;;;;;;7.87;5.07;;;15.20;99.90;;;;;;5021331;28;20204;-30
2023/09/26 08:41:48;;;;;;;5.10;4.60;;;15.40;99.90;;;;;;5039419;28;20304;-30
2023/09/26 08:44:16;;;;;;;7.13;4.70;;;15.60;99.90;;;;;;5031454;28;20201;-30
2023/09/26 08:46:54;;;;;;;7.07;4.90;;;15.70;99.90;;;;;;5047773;28;20221;-31
2023/09/26 08:49:22;;;;;;;5.77;4.43;;;15.80;99.90;;;;;;5013776;28;20272;-30
2023/09/26 08:51:50;;;;;;;5.57;4.87;;;16.00;99.90;;;;;;5030196;28;20232;-30
2023/09/26 08:54:15;;;;;;;6.23;4.70;;;16.10;99.90;;;;;;5052173;28;20592;-31
2023/09/26 08:56:44;;;;;;;5.73;5.13;;;16.30;99.90;;;;;;5026936;28;20259;-30
2023/09/26 08:59:11;;;;;;;5.10;4.60;;;16.30;99.90;;;;;;5050490;28;20182;-30
2023/09/26 09:01:37;;;;;;;6.40;4.90;;;16.40;99.90;;;;;;5026318;28;20201;-30
2023/09/26 09:04:06;;;;;;;5.30;4.80;;;16.60;99.90;;;;;;5027919;28;20261;-30
2023/09/26 09:06:32;;;;;;;6.78;5.40;;;16.60;99.90;;;;;;5049796;28;20175;-30
2023/09/26 09:09:09;;;;;;;6.20;5.00;;;16.70;99.90;;;;;;5029688;28;20192;-30
2023/09/26 09:11:36;;;;;;;5.78;5.13;;;16.80;99.90;;;;;;5033066;28;20651;-32
2023/09/26 09:14:08;;;;;;;5.15;4.65;;;16.90;99.90;;;;;;5039678;28;20179;-31
2023/09/26 09:16:36;;;;;;;5.40;4.90;;;17.20;99.90;;;;;;5050982;28;20174;-30
2023/09/26 09:19:03;;;;;;;5.40;4.38;;;17.30;99.90;;;;;;5024709;28;20308;-30
2023/09/26 09:21:34;;;;;;;5.00;4.20;;;17.50;99.90;;;;;;5051714;28;20252;-30
2023/09/26 09:24:06;;;;;;;6.25;4.25;;;17.70;99.90;;;;;;5024163;28;20174;-30
2023/09/26 09:26:37;;;;;;;4.55;4.15;;;17.80;99.90;;;;;;5040598;28;20232;-33
2023/09/26 09:29:20;;;;;;;5.88;4.82;;;18.00;99.90;;;;;;5024263;28;20178;-31
2023/09/26 09:31:51;;;;;;;4.55;4.07;;;18.10;99.90;;;;;;5023182;28;20240;-31
2023/09/26 09:34:19;;;;;;;5.40;4.53;;;18.20;99.90;;;;;;5031944;28;20186;-31
2023/09/26 09:36:45;;;;;;;4.20;3.58;;;18.30;99.90;;;;;;5051088;28;20231;-30
2023/09/26 09:39:12;;;;;;;5.10;4.60;;;18.50;99.90;;;;;;5041482;28;20276;-31
2023/09/26 09:41:39;;;;;;;5.35;4.57;;;18.60;99.90;;;;;;5033790;28;20216;-30
2023/09/26 09:44:05;;;;;;;4.68;4.28;;;18.70;99.90;;;;;;5049960;28;20185;-31
2023/09/26 09:46:38;;;;;;;4.95;4.45;;;18.90;99.90;;;;;;5019610;28;20178;-30
2023/09/26 09:49:11;;;;;;;4.85;3.90;;;19.00;99.90;;;;;;5020149;28;20185;-30
2023/09/26 09:51:43;;;;;;;5.38;4.78;;;19.10;99.90;;;;;;5023908;28;20193;-31
2023/09/26 09:54:20;;;;;;;5.03;4.07;;;19.10;99.90;;;;;;5034465;28;20185;-31
2023/09/26 09:56:47;;;;;;;4.45;3.95;;;19.30;99.90;;;;;;5051141;28;20200;-31
2023/09/26 09:59:15;;;;;;;4.30;3.47;;;19.40;99.90;;;;;;5018449;28;20205;-31
2023/09/26 10:01:49;;;;;;;5.55;4.40;;;19.50;99.90;;;;;;5051376;28;20216;-30
2023/09/26 10:04:16;;;;;;;6.05;3.60;;;19.60;99.90;;;;;;5031745;28;20173;-30
2023/09/26 10:06:43;;;;;;;4.70;3.20;;;19.60;99.90;;;;;;5035212;28;20274;-30
2023/09/26 10:09:10;;;;;;;5.30;4.00;;;19.80;99.90;;;;;;5050766;28;20253;-31
2023/09/26 10:11:36;;;;;;;4.30;3.90;;;19.90;99.90;;;;;;5037191;28;20238;-31
2023/09/26 10:14:10;;;;;;;4.45;3.25;;;20.00;99.90;;;;;;5036103;28;20182;-31
2023/09/26 10:16:37;;;;;;;4.32;3.92;;;20.10;99.90;;;;;;5049395;28;20292;-31
2023/09/26 10:19:04;;;;;;;4.30;3.90;;;20.30;99.90;;;;;;5022030;28;20296;-31
2023/09/26 10:21:31;;;;;;;4.65;3.20;;;20.30;99.90;;;;;;5031704;28;20205;-31
2023/09/26 10:24:12;;;;;;;3.50;3.20;;;20.40;99.90;;;;;;5029959;28;20175;-31
2023/09/26 10:26:53;;;;;;;4.80;3.53;;;20.50;99.90;;;;;;5031833;28;20277;-31
2023/09/26 10:29:32;;;;;;;4.30;3.22;;;20.60;99.90;;;;;;5050050;28;20201;-31
2023/09/26 10:32:07;;;;;;;5.10;3.78;;;20.60;99.90;;;;;;5032025;28;20186;-31
2023/09/26 10:34:38;;;;;;;3.30;3.00;;;20.70;99.90;;;;;;5032415;28;20205;-31
2023/09/26 10:37:07;;;;;;;3.95;3.55;;;20.70;99.90;;;;;;5048349;28;20345;-30
2023/09/26 10:39:43;;;;;;;4.60;4.00;;;20.70;99.90;;;;;;5050429;28;20186;-30
2023/09/26 10:42:24;;;;;;;4.15;3.75;;;20.80;99.90;;;;;;5048694;28;20217;-30
2023/09/26 10:44:51;;;;;;;3.42;3.13;;;20.80;99.90;;;;;;5029902;28;20198;-31
2023/09/26 10:47:21;;;;;;;3.58;3.28;;;20.90;99.90;;;;;;5023109;28;20185;-31
2023/09/26 10:49:50;;;;;;;3.80;3.13;;;21.00;99.90;;;;;;5047143;28;20186;-30
2023/09/26 10:52:18;;;;;;;4.85;3.00;;;21.20;99.90;;;;;;5033196;28;20185;-31
2023/09/26 10:54:45;;;;;;;4.22;3.05;;;21.30;99.90;;;;;;5050650;28;20205;-31
2023/09/26 10:57:22;;;;;;;3.72;2.75;;;21.30;99.90;;;;;;5046453;28;20185;-31
2023/09/26 10:59:54;;;;;;;2.90;2.70;;;21.30;99.90;;;;;;5032772;28;20189;-31
2023/09/26 11:02:22;;;;;;;3.20;2.90;;;21.40;99.90;;;;;;5033898;28;20213;-31
2023/09/26 11:04:48;;;;;;;3.40;2.88;;;21.60;99.90;;;;;;5049711;28;20205;-31
2023/09/26 11:07:15;;;;;;;3.25;2.53;;;21.70;99.90;;;;;;5017341;28;20175;-31
2023/09/26 11:09:44;;;;;;;4.10;3.05;;;21.90;99.90;;;;;;5017707;28;20181;-31
2023/09/26 11:12:12;;;;;;;3.95;2.90;;;22.00;99.90;;;;;;5025565;28;20186;-31
2023/09/26 11:14:38;;;;;;;6.53;2.88;;;22.10;99.90;;;;;;5041618;28;20206;-31
2023/09/26 11:17:07;;;;;;;3.58;2.90;;;22.30;99.90;;;;;;5050156;28;20188;-31
2023/09/26 11:19:34;;;;;;;3.20;2.58;;;22.40;99.90;;;;;;5019789;28;20174;-31
2023/09/26 11:22:00;;;;;;;4.68;2.80;;;22.40;99.90;;;;;;5049828;28;20320;-32
2023/09/26 11:24:30;;;;;;;4.30;2.47;;;22.50;99.90;;;;;;5048926;28;20267;-33
2023/09/26 11:27:04;;;;;;;3.72;2.50;;;22.60;99.90;;;;;;5032507;28;20182;-31
2023/09/26 11:29:31;;;;;;;3.22;2.83;;;22.60;99.90;;;;;;5019344;28;20185;-31
2023/09/26 11:31:58;;;;;;;4.10;2.75;;;22.50;99.90;;;;;;5018305;28;20201;-31
2023/09/26 11:34:24;;;;;;;2.28;2.00;;;22.60;99.90;;;;;;5049072;28;20189;-31
2023/09/26 11:36:50;;;;;;;2.70;2.20;;;22.80;99.90;;;;;;5032903;28;20208;-31
2023/09/26 11:39:18;;;;;;;3.28;2.50;;;23.00;99.90;;;;;;5032280;28;20212;-31
2023/09/26 11:41:46;;;;;;;3.03;2.22;;;23.10;99.90;;;;;;5031117;28;20256;-31
2023/09/26 11:44:17;;;;;;;2.80;2.50;;;23.30;99.90;;;;;;5032588;28;20676;-31
2023/09/26 11:46:54;;;;;;;4.07;2.67;;;23.30;99.90;;;;;;5029096;28;20671;-31
2023/09/26 11:49:24;;;;;;;2.47;2.28;;;23.30;99.90;;;;;;5029162;28;20208;-31
2023/09/26 11:51:52;;;;;;;2.40;2.10;;;23.40;99.90;;;;;;5022391;28;20268;-31
2023/09/26 11:54:18;;;;;;;2.80;2.55;;;23.60;99.90;;;;;;5047972;28;20661;-31
2023/09/26 11:56:46;;;;;;;5.28;2.10;;;23.80;99.90;;;;;;5031026;28;20217;-30
2023/09/26 11:59:17;;;;;;;2.75;2.45;;;24.00;99.90;;;;;;5047355;28;20264;-31
2023/09/26 12:01:44;;;;;;;2.30;2.10;;;24.20;99.90;;;;;;5051486;28;20202;-31
2023/09/26 12:04:14;;;;;;;2.58;1.92;;;24.30;99.90;;;;;;5017065;28;20262;-31
2023/09/26 12:06:43;;;;;;;3.88;2.30;;;24.30;99.90;;;;;;5045975;28;20178;-31
2023/09/26 12:09:21;;;;;;;2.30;2.10;;;24.40;99.90;;;;;;5049241;28;20177;-31
2023/09/26 12:11:50;;;;;;;2.83;2.35;;;24.30;99.90;;;;;;5032939;28;20188;-31
2023/09/26 12:14:17;;;;;;;2.75;2.17;;;24.40;99.90;;;;;;5047834;28;20197;-32
2023/09/26 12:16:50;;;;;;;2.83;2.33;;;24.40;99.90;;;;;;5031757;28;20178;-32
2023/09/26 12:19:22;;;;;;;2.30;2.10;;;24.30;99.90;;;;;;5011316;28;20214;-31
2023/09/26 12:21:53;;;;;;;2.88;2.00;;;24.30;99.90;;;;;;5015159;28;20300;-31
2023/09/26 12:24:21;;;;;;;1.98;1.80;;;24.30;99.90;;;;;;5026891;28;20224;-31
2023/09/26 12:27:10;;;;;;;2.20;1.70;;;24.40;99.90;;;;;;5032389;28;20186;-32
2023/09/26 12:29:37;;;;;;;3.90;2.13;;;24.70;99.90;;;;;;5044310;28;20189;-32
2023/09/26 12:32:03;;;;;;;3.30;1.95;;;24.90;99.90;;;;;;5032754;28;20280;-32
2023/09/26 12:34:29;;;;;;;2.08;1.85;;;25.10;99.90;;;;;;5032201;28;20332;-32
2023/09/26 12:36:55;;;;;;;2.35;2.10;;;25.20;99.90;;;;;;5015758;28;20177;-32
2023/09/26 12:39:21;;;;;;;3.33;1.83;;;25.30;99.90;;;;;;5049221;28;20182;-32
2023/09/26 12:41:47;;;;;;;2.28;2.00;;;25.40;99.90;;;;;;5048686;28;20206;-32
2023/09/26 12:44:13;;;;;;;3.55;2.20;;;25.50;99.90;;;;;;5029319;28;20170;-32
2023/09/26 12:46:39;;;;;;;2.20;2.00;;;25.50;99.90;;;;;;5046221;28;20194;-32
2023/09/26 12:49:06;;;;;;;2.45;1.92;;;25.60;99.90;;;;;;5040250;28;20178;-32
2023/09/26 12:51:34;;;;;;;2.13;2.00;;;25.80;99.90;;;;;;5029868;28;20187;-32
2023/09/26 12:54:04;;;;;;;1.98;1.88;;;26.00;99.90;;;;;;5029061;28;20186;-32
2023/09/26 12:56:32;;;;;;;3.33;2.08;;;26.10;99.90;;;;;;5029183;28;20189;-32